createdAt,value
2022-09-14T00:02:13.912Z,19.10
2022-09-14T00:06:22.929Z,19.00
2022-09-14T00:10:50.911Z,19.00
2022-09-14T00:14:59.542Z,18.90
2022-09-14T00:19:11.138Z,18.90
2022-09-14T00:23:20.349Z,18.80
2022-09-14T00:27:48.304Z,18.80
2022-09-14T00:31:57.403Z,18.80
2022-09-14T00:36:12.255Z,18.70
2022-09-14T00:40:21.193Z,18.70
2022-09-14T00:44:33.938Z,18.70
2022-09-14T00:48:42.468Z,18.70
2022-09-14T00:52:51.874Z,18.70
2022-09-14T00:57:03.854Z,18.70
2022-09-14T01:01:12.715Z,18.60
2022-09-14T01:05:39.715Z,18.60
2022-09-14T01:09:52.339Z,18.50
2022-09-14T01:14:13.150Z,18.50
2022-09-14T01:18:30.687Z,18.40
2022-09-14T01:22:54.172Z,18.40
2022-09-14T01:27:11.804Z,18.40
2022-09-14T01:31:41.386Z,18.40
2022-09-14T01:35:56.404Z,18.40
2022-09-14T01:40:11.279Z,18.30
2022-09-14T01:44:23.127Z,18.20
2022-09-14T01:48:37.478Z,18.20
2022-09-14T01:52:49.250Z,18.20
2022-09-14T01:57:01.358Z,18.30
2022-09-14T02:01:13.094Z,18.30
2022-09-14T02:05:36.984Z,18.20
2022-09-14T02:09:47.175Z,18.20
2022-09-14T02:13:55.943Z,18.20
2022-09-14T02:18:05.635Z,18.20
2022-09-14T02:22:14.554Z,18.20
2022-09-14T02:26:24.169Z,18.20
2022-09-14T02:30:35.988Z,18.20
2022-09-14T02:35:19.230Z,18.20
2022-09-14T02:39:36.768Z,18.20
2022-09-14T02:44:06.629Z,18.10
2022-09-14T02:48:18.258Z,18.10
2022-09-14T02:52:35.625Z,18.00
2022-09-14T02:56:44.907Z,18.00
2022-09-14T03:00:53.520Z,18.00
2022-09-14T03:05:02.332Z,18.10
2022-09-14T03:09:10.867Z,18.00
2022-09-14T03:13:19.599Z,17.90
2022-09-14T03:17:28.218Z,17.90
2022-09-14T03:21:38.896Z,17.90
2022-09-14T03:25:47.524Z,17.90
2022-09-14T03:29:56.153Z,17.90
2022-09-14T03:34:04.783Z,17.90
2022-09-14T03:38:13.350Z,17.90
2022-09-14T03:42:22.141Z,17.80
2022-09-14T03:46:30.846Z,17.80
2022-09-14T03:50:39.852Z,17.80
2022-09-14T03:54:48.438Z,17.80
2022-09-14T03:58:57.169Z,17.60
2022-09-14T04:03:05.854Z,17.50
2022-09-14T04:07:15.861Z,17.40
2022-09-14T04:11:25.609Z,17.30
2022-09-14T04:15:35.677Z,17.30
2022-09-14T04:19:44.408Z,17.20
2022-09-14T04:24:14.231Z,17.20
2022-09-14T04:28:20.241Z,17.10
2022-09-14T04:32:19.347Z,17.10
2022-09-14T04:36:31.554Z,17.10
2022-09-14T04:41:00.015Z,17.10
2022-09-14T04:45:09.463Z,17.00
2022-09-14T04:49:18.811Z,16.80
2022-09-14T04:53:27.540Z,16.80
2022-09-14T04:57:36.169Z,16.70
2022-09-14T05:01:48.913Z,16.70
2022-09-14T05:06:00.335Z,16.70
2022-09-14T05:10:09.355Z,16.60
2022-09-14T05:14:19.695Z,16.50
2022-09-14T05:18:30.270Z,16.60
2022-09-14T05:22:39.309Z,16.70
2022-09-14T05:26:48.160Z,16.70
2022-09-14T05:30:57.078Z,16.70
2022-09-14T05:35:06.243Z,16.60
2022-09-14T05:39:16.196Z,16.70
2022-09-14T05:43:44.491Z,16.70
2022-09-14T05:47:53.403Z,16.70
2022-09-14T05:52:21.898Z,16.70
2022-09-14T05:56:31.859Z,16.70
2022-09-14T06:00:40.588Z,16.70
2022-09-14T06:04:49.359Z,16.70
2022-09-14T06:08:58.787Z,16.70
2022-09-14T06:13:07.910Z,16.80
2022-09-14T06:17:16.541Z,16.70
2022-09-14T06:21:26.926Z,16.70
2022-09-14T06:25:35.639Z,16.70
2022-09-14T06:29:45.480Z,16.70
2022-09-14T06:33:54.435Z,16.70
2022-09-14T06:38:23.031Z,16.60
2022-09-14T06:42:31.863Z,16.50
2022-09-14T06:46:42.005Z,16.40
2022-09-14T06:50:51.005Z,16.50
2022-09-14T06:54:59.598Z,16.50
2022-09-14T06:59:10.431Z,16.60
2022-09-14T07:03:39.074Z,16.60
2022-09-14T07:08:11.953Z,16.60
2022-09-14T07:12:37.598Z,16.60
2022-09-14T07:16:46.476Z,16.50
2022-09-14T07:20:55.658Z,16.40
2022-09-14T07:25:04.322Z,16.40
2022-09-14T07:29:15.905Z,16.40
2022-09-14T07:33:24.539Z,16.30
2022-09-14T07:37:33.159Z,16.40
2022-09-14T07:42:01.024Z,16.40
2022-09-14T07:46:09.665Z,16.50
2022-09-14T07:50:18.742Z,16.40
2022-09-14T07:54:27.438Z,16.50
2022-09-14T07:58:36.373Z,16.60
2022-09-14T08:02:45.788Z,16.60
2022-09-14T08:06:54.387Z,16.70
2022-09-14T08:11:23.865Z,16.70
2022-09-14T08:15:33.276Z,16.60
2022-09-14T08:19:41.942Z,16.70
2022-09-14T08:23:50.778Z,16.60
2022-09-14T08:27:59.317Z,16.60
2022-09-14T08:32:08.073Z,16.70
2022-09-14T08:36:20.251Z,16.60
2022-09-14T08:40:29.002Z,16.70
2022-09-14T08:44:40.784Z,16.70
2022-09-14T08:48:49.953Z,16.80
2022-09-14T08:53:00.636Z,16.80
2022-09-14T08:57:21.269Z,16.80
2022-09-14T09:01:52.365Z,16.90
2022-09-14T09:06:16.419Z,16.90
2022-09-14T09:10:27.650Z,16.80
2022-09-14T09:14:42.905Z,16.80
2022-09-14T09:18:57.739Z,16.80
2022-09-14T09:23:27.222Z,16.80
2022-09-14T09:27:36.056Z,16.80
2022-09-14T09:31:53.290Z,16.80
2022-09-14T09:36:02.119Z,16.80
2022-09-14T09:40:19.934Z,16.80
2022-09-14T09:44:28.568Z,16.80
2022-09-14T09:48:43.997Z,16.80
2022-09-14T09:52:55.492Z,16.80
2022-09-14T09:57:07.189Z,16.90
2022-09-14T10:01:34.541Z,16.90
2022-09-14T10:05:43.379Z,17.00
2022-09-14T10:10:12.628Z,17.00
2022-09-14T10:14:25.399Z,17.10
2022-09-14T10:18:35.475Z,17.10
2022-09-14T10:22:44.416Z,17.10
2022-09-14T10:26:53.047Z,17.10
2022-09-14T10:31:04.685Z,17.10
2022-09-14T10:35:15.721Z,17.10
2022-09-14T10:39:33.680Z,17.00
2022-09-14T10:43:54.577Z,17.00
2022-09-14T10:48:15.102Z,17.00
2022-09-14T10:52:36.690Z,17.00
2022-09-14T11:01:29.267Z,17.10
2022-09-14T11:05:41.226Z,17.10
2022-09-14T11:09:58.525Z,17.10
2022-09-14T11:14:12.921Z,17.10
2022-09-14T11:18:27.593Z,17.10
2022-09-14T11:22:57.010Z,17.10
2022-09-14T11:27:27.147Z,17.10
2022-09-14T11:31:38.784Z,17.00
2022-09-14T11:35:53.215Z,17.00
2022-09-14T11:40:05.299Z,16.80
2022-09-14T11:44:27.461Z,16.90
2022-09-14T11:48:43.467Z,16.90
2022-09-14T11:53:13.187Z,16.80
2022-09-14T11:57:27.467Z,16.80
2022-09-14T12:01:39.035Z,16.90
2022-09-14T12:05:49.051Z,16.80
2022-09-14T12:10:00.697Z,16.80
2022-09-14T12:14:30.492Z,16.80
2022-09-14T12:18:41.211Z,16.80
2022-09-14T12:22:50.762Z,16.80
2022-09-14T12:27:00.928Z,16.80
2022-09-14T12:31:15.436Z,16.80
2022-09-14T12:35:42.451Z,16.90
2022-09-14T12:40:23.267Z,16.90
2022-09-14T12:44:34.971Z,16.90
2022-09-14T12:48:54.314Z,16.90
2022-09-14T12:53:18.919Z,16.90
2022-09-14T12:57:42.085Z,16.80
2022-09-14T13:02:02.810Z,16.70
2022-09-14T13:06:14.353Z,16.70
2022-09-14T13:10:34.808Z,16.70
2022-09-14T13:14:56.027Z,16.70
2022-09-14T13:19:27.529Z,16.70
2022-09-14T13:23:42.071Z,16.70
2022-09-14T13:27:50.973Z,16.80
2022-09-14T13:32:03.972Z,16.80
2022-09-14T13:36:13.168Z,16.80
2022-09-14T13:40:28.635Z,16.80
2022-09-14T13:44:41.502Z,16.70
2022-09-14T13:48:50.883Z,16.80
2022-09-14T13:53:03.123Z,16.90
2022-09-14T13:57:21.422Z,16.90
2022-09-14T14:01:30.710Z,16.90
2022-09-14T14:05:43.520Z,16.90
2022-09-14T14:09:55.013Z,17.00
2022-09-14T14:14:21.729Z,17.00
2022-09-14T14:18:41.580Z,17.10
2022-09-14T14:23:12.976Z,17.00
2022-09-14T14:27:33.044Z,16.90
2022-09-14T14:31:41.666Z,16.90
2022-09-14T14:35:53.644Z,16.90
2022-09-14T14:40:03.445Z,16.90
2022-09-14T14:44:15.164Z,16.90
2022-09-14T14:48:24.758Z,16.90
2022-09-14T14:52:33.533Z,16.90
2022-09-14T14:56:43.614Z,16.90
2022-09-14T15:00:52.289Z,16.80
2022-09-14T15:05:20.511Z,16.80
2022-09-14T15:09:30.491Z,16.90
2022-09-14T15:13:39.325Z,16.90
2022-09-14T15:17:48.260Z,16.90
2022-09-14T15:22:01.054Z,17.00
2022-09-14T15:26:07.160Z,16.90
2022-09-14T15:30:16.423Z,16.80
2022-09-14T15:34:25.439Z,16.70
2022-09-14T15:38:33.965Z,16.70
2022-09-14T15:42:42.596Z,16.70
2022-09-14T15:46:53.086Z,16.80
2022-09-14T15:51:04.725Z,16.80
2022-09-14T15:55:13.628Z,16.70
2022-09-14T15:59:23.113Z,16.70
2022-09-14T16:03:31.781Z,16.60
2022-09-14T16:07:59.761Z,16.60
2022-09-14T16:12:13.407Z,16.60
2022-09-14T16:16:22.470Z,16.60
2022-09-14T16:20:31.690Z,16.70
2022-09-14T16:24:40.524Z,16.60
2022-09-14T16:28:50.600Z,16.60
2022-09-14T16:33:20.510Z,16.60
2022-09-14T16:37:28.981Z,16.60
2022-09-14T16:41:39.103Z,16.60
2022-09-14T16:45:47.693Z,16.70
2022-09-14T16:49:56.365Z,16.60
2022-09-14T16:54:17.201Z,16.50
2022-09-14T16:58:25.846Z,16.40
2022-09-14T17:02:53.770Z,16.40
2022-09-14T17:07:02.312Z,16.30
2022-09-14T17:11:12.474Z,16.30
2022-09-14T17:15:21.135Z,16.40
2022-09-14T17:19:30.554Z,16.30
2022-09-14T17:23:39.715Z,16.30
2022-09-14T17:27:48.280Z,16.40
2022-09-14T17:31:57.036Z,16.40
2022-09-14T17:36:07.144Z,16.40
2022-09-14T17:40:16.016Z,16.40
2022-09-14T17:44:25.817Z,16.40
2022-09-14T17:48:38.783Z,16.40
2022-09-14T17:52:47.370Z,16.30
2022-09-14T17:56:56.025Z,16.20
2022-09-14T18:01:10.249Z,16.20
2022-09-14T18:05:19.604Z,16.20
2022-09-14T18:09:28.336Z,16.20
2022-09-14T18:13:38.513Z,16.20
2022-09-14T18:17:48.821Z,16.20
2022-09-14T18:21:57.498Z,16.20
2022-09-14T18:26:07.869Z,16.20
2022-09-14T18:30:38.410Z,16.20
2022-09-14T18:34:46.118Z,16.20
2022-09-14T18:39:14.102Z,16.10
2022-09-14T18:43:22.730Z,16.10
2022-09-14T18:47:31.358Z,16.10
2022-09-14T18:51:39.935Z,16.10
2022-09-14T18:55:48.522Z,16.10
2022-09-14T18:59:57.095Z,16.10
2022-09-14T19:04:25.022Z,16.10
2022-09-14T19:08:33.753Z,16.00
2022-09-14T19:12:42.793Z,15.90
2022-09-14T19:16:51.523Z,15.90
2022-09-14T19:21:07.000Z,15.80
2022-09-14T19:25:16.082Z,15.80
2022-09-14T19:29:26.040Z,15.90
2022-09-14T19:33:36.096Z,15.90
2022-09-14T19:37:44.804Z,15.90
2022-09-14T19:41:54.252Z,15.80
2022-09-14T19:46:06.964Z,15.80
2022-09-14T19:50:15.708Z,15.80
2022-09-14T19:54:24.849Z,15.70
2022-09-14T19:58:36.362Z,15.70
2022-09-14T20:02:46.957Z,15.70
2022-09-14T20:06:56.471Z,15.60
2022-09-14T20:11:07.335Z,15.60
2022-09-14T20:15:17.172Z,15.50
2022-09-14T20:19:28.457Z,15.40
2022-09-14T20:23:48.594Z,15.40
2022-09-14T20:27:48.319Z,15.40
2022-09-14T20:31:57.999Z,15.40
2022-09-14T20:36:09.302Z,15.30
2022-09-14T20:40:18.045Z,15.30
2022-09-14T20:44:26.624Z,15.20
2022-09-14T20:48:35.926Z,15.20
2022-09-14T20:52:44.568Z,15.20
2022-09-14T20:56:53.227Z,15.10
2022-09-14T21:01:10.398Z,15.10
2022-09-14T21:05:19.345Z,15.10
2022-09-14T21:09:29.147Z,15.20
2022-09-14T21:13:38.563Z,15.10
2022-09-14T21:17:47.224Z,15.00
2022-09-14T21:21:56.423Z,15.00
2022-09-14T21:26:07.001Z,15.00
2022-09-14T21:30:15.673Z,15.00
2022-09-14T21:34:24.402Z,14.90
2022-09-14T21:38:33.850Z,14.80
2022-09-14T21:42:42.584Z,14.80
2022-09-14T21:46:51.128Z,14.90
2022-09-14T21:51:11.229Z,14.90
2022-09-14T21:55:19.834Z,14.80
2022-09-14T21:59:28.463Z,14.80
2022-09-14T22:03:37.399Z,14.80
2022-09-14T22:07:46.028Z,14.80
2022-09-14T22:11:54.759Z,14.80
2022-09-14T22:16:12.171Z,14.70
2022-09-14T22:20:20.883Z,14.60
2022-09-14T22:24:37.439Z,14.60
2022-09-14T22:28:43.098Z,14.60
2022-09-14T22:32:51.624Z,14.50
2022-09-14T22:37:00.458Z,14.50
2022-09-14T22:41:12.111Z,14.60
2022-09-14T22:45:21.178Z,14.60
2022-09-14T22:49:31.236Z,14.60
2022-09-14T22:53:59.333Z,14.60
2022-09-14T22:58:08.938Z,14.70
2022-09-14T23:02:19.295Z,14.70
2022-09-14T23:06:33.901Z,14.70
2022-09-14T23:10:42.564Z,14.80
2022-09-14T23:14:51.203Z,14.80
2022-09-14T23:19:02.690Z,14.70
2022-09-14T23:23:12.293Z,14.80
2022-09-14T23:27:20.869Z,14.80
2022-09-14T23:31:30.886Z,14.80
2022-09-14T23:35:39.559Z,14.80
2022-09-14T23:39:48.214Z,14.70
2022-09-14T23:43:56.981Z,14.70
2022-09-14T23:48:05.652Z,14.60
2022-09-14T23:52:14.508Z,14.60
2022-09-14T23:56:23.728Z,14.60
